sensor_id;sensor_type;location;lat;lon;timestamp;pressure;altitude;pressure_sealevel;temperature;humidity
48872;BME280;36154;51.674;7.824;2023-04-20T00:01:31;101263.16;;;21.11;42.59
48872;BME280;36154;51.674;7.824;2023-04-20T00:03:56;101258.81;;;21.13;42.47
48872;BME280;36154;51.674;7.824;2023-04-20T00:06:25;101268.31;;;21.12;42.46
48872;BME280;36154;51.674;7.824;2023-04-20T00:08:53;101261.38;;;21.13;42.55
48872;BME280;36154;51.674;7.824;2023-04-20T00:11:19;101257.97;;;21.12;42.41
48872;BME280;36154;51.674;7.824;2023-04-20T00:13:44;101245.03;;;21.11;42.51
48872;BME280;36154;51.674;7.824;2023-04-20T00:16:10;101245.84;;;21.13;42.62
48872;BME280;36154;51.674;7.824;2023-04-20T00:18:35;101243.28;;;21.11;42.56
48872;BME280;36154;51.674;7.824;2023-04-20T00:21:00;101230.28;;;21.13;42.52
48872;BME280;36154;51.674;7.824;2023-04-20T00:23:25;101224.31;;;21.11;42.48
48872;BME280;36154;51.674;7.824;2023-04-20T00:25:50;101229.47;;;21.11;42.62
48872;BME280;36154;51.674;7.824;2023-04-20T00:28:16;101226.00;;;21.12;42.61
48872;BME280;36154;51.674;7.824;2023-04-20T00:30:41;101224.31;;;21.11;42.55
48872;BME280;36154;51.674;7.824;2023-04-20T00:33:07;101216.53;;;21.11;42.54
48872;BME280;36154;51.674;7.824;2023-04-20T00:35:32;101213.94;;;21.11;42.62
48872;BME280;36154;51.674;7.824;2023-04-20T00:37:57;101212.22;;;21.10;42.64
48872;BME280;36154;51.674;7.824;2023-04-20T00:40:23;101211.34;;;21.11;42.71
48872;BME280;36154;51.674;7.824;2023-04-20T00:42:48;101208.75;;;21.11;42.62
48872;BME280;36154;51.674;7.824;2023-04-20T00:45:13;101202.69;;;21.10;42.73
48872;BME280;36154;51.674;7.824;2023-04-20T00:47:38;101201.84;;;21.10;42.58
48872;BME280;36154;51.674;7.824;2023-04-20T00:50:05;101199.28;;;21.08;42.79
48872;BME280;36154;51.674;7.824;2023-04-20T00:52:31;101194.97;;;21.09;42.62
48872;BME280;36154;51.674;7.824;2023-04-20T00:54:57;101193.22;;;21.11;42.67
48872;BME280;36154;51.674;7.824;2023-04-20T00:57:22;101188.03;;;21.11;42.61
48872;BME280;36154;51.674;7.824;2023-04-20T00:59:49;101190.66;;;21.09;42.59
48872;BME280;36154;51.674;7.824;2023-04-20T01:02:15;101179.41;;;21.09;42.68
48872;BME280;36154;51.674;7.824;2023-04-20T01:04:42;101174.22;;;21.09;42.62
48872;BME280;36154;51.674;7.824;2023-04-20T01:07:07;101166.47;;;21.09;42.68
48872;BME280;36154;51.674;7.824;2023-04-20T01:09:33;101165.59;;;21.10;42.64
48872;BME280;36154;51.674;7.824;2023-04-20T01:11:58;101156.09;;;21.09;42.80
48872;BME280;36154;51.674;7.824;2023-04-20T01:14:23;101144.84;;;21.10;42.73
48872;BME280;36154;51.674;7.824;2023-04-20T01:16:48;101144.00;;;21.09;42.77
48872;BME280;36154;51.674;7.824;2023-04-20T01:19:16;101143.13;;;21.09;42.71
48872;BME280;36154;51.674;7.824;2023-04-20T01:21:41;101144.00;;;21.09;42.79
48872;BME280;36154;51.674;7.824;2023-04-20T01:24:07;101142.25;;;21.10;42.72
48872;BME280;36154;51.674;7.824;2023-04-20T01:26:32;101132.78;;;21.09;42.74
48872;BME280;36154;51.674;7.824;2023-04-20T01:28:57;101131.94;;;21.08;42.71
48872;BME280;36154;51.674;7.824;2023-04-20T01:31:23;101120.72;;;21.08;42.78
48872;BME280;36154;51.674;7.824;2023-04-20T01:33:48;101118.97;;;21.08;42.73
48872;BME280;36154;51.674;7.824;2023-04-20T01:36:13;101112.03;;;21.09;42.72
48872;BME280;36154;51.674;7.824;2023-04-20T01:38:39;101109.47;;;21.09;42.74
48872;BME280;36154;51.674;7.824;2023-04-20T01:41:06;101112.03;;;21.09;42.74
48872;BME280;36154;51.674;7.824;2023-04-20T01:43:33;101101.69;;;21.09;42.82
48872;BME280;36154;51.674;7.824;2023-04-20T01:45:59;101090.59;;;21.03;42.81
48872;BME280;36154;51.674;7.824;2023-04-20T01:48:25;101096.56;;;21.07;42.72
48872;BME280;36154;51.674;7.824;2023-04-20T01:50:51;101094.81;;;21.08;42.86
48872;BME280;36154;51.674;7.824;2023-04-20T01:53:16;101092.22;;;21.08;42.72
48872;BME280;36154;51.674;7.824;2023-04-20T01:55:41;101087.03;;;21.08;42.83
48872;BME280;36154;51.674;7.824;2023-04-20T01:58:07;101077.56;;;21.07;42.75
48872;BME280;36154;51.674;7.824;2023-04-20T02:00:32;101084.44;;;21.08;42.67
48872;BME280;36154;51.674;7.824;2023-04-20T02:02:57;101087.91;;;21.07;42.75
48872;BME280;36154;51.674;7.824;2023-04-20T02:05:22;101094.81;;;21.08;42.74
48872;BME280;36154;51.674;7.824;2023-04-20T02:07:48;101093.09;;;21.07;42.75
48872;BME280;36154;51.674;7.824;2023-04-20T02:10:13;101095.69;;;21.07;42.84
48872;BME280;36154;51.674;7.824;2023-04-20T02:12:38;101093.09;;;21.07;42.80
48872;BME280;36154;51.674;7.824;2023-04-20T02:15:05;101081.91;;;21.06;42.80
48872;BME280;36154;51.674;7.824;2023-04-20T02:17:30;101074.13;;;21.06;42.77
48872;BME280;36154;51.674;7.824;2023-04-20T02:19:57;101069.81;;;21.05;42.92
48872;BME280;36154;51.674;7.824;2023-04-20T02:22:22;101064.72;;;21.02;42.83
48872;BME280;36154;51.674;7.824;2023-04-20T02:24:47;101065.50;;;21.05;42.84
48872;BME280;36154;51.674;7.824;2023-04-20T02:27:12;101060.31;;;21.05;42.82
48872;BME280;36154;51.674;7.824;2023-04-20T02:29:38;101063.75;;;21.06;42.82
48872;BME280;36154;51.674;7.824;2023-04-20T02:32:03;101070.69;;;21.05;42.95
48872;BME280;36154;51.674;7.824;2023-04-20T02:34:29;101070.69;;;21.05;42.90
48872;BME280;36154;51.674;7.824;2023-04-20T02:36:54;101063.78;;;21.04;42.77
48872;BME280;36154;51.674;7.824;2023-04-20T02:39:19;101063.78;;;21.04;42.81
48872;BME280;36154;51.674;7.824;2023-04-20T02:41:45;101057.78;;;21.04;42.83
48872;BME280;36154;51.674;7.824;2023-04-20T02:44:10;101068.97;;;21.04;43.00
48872;BME280;36154;51.674;7.824;2023-04-20T02:46:35;101068.97;;;21.04;42.68
48872;BME280;36154;51.674;7.824;2023-04-20T02:49:01;101066.38;;;21.04;42.80
48872;BME280;36154;51.674;7.824;2023-04-20T02:51:27;101068.97;;;21.04;42.81
48872;BME280;36154;51.674;7.824;2023-04-20T02:53:52;101070.72;;;21.04;42.92
48872;BME280;36154;51.674;7.824;2023-04-20T02:56:18;101062.09;;;21.03;42.82
48872;BME280;36154;51.674;7.824;2023-04-20T02:58:43;101062.09;;;21.03;42.73
48872;BME280;36154;51.674;7.824;2023-04-20T03:01:08;101057.78;;;21.04;42.75
48872;BME280;36154;51.674;7.824;2023-04-20T03:03:34;101054.31;;;21.03;42.83
48872;BME280;36154;51.674;7.824;2023-04-20T03:05:59;101055.22;;;21.02;42.83
48872;BME280;36154;51.674;7.824;2023-04-20T03:08:27;101050.03;;;21.02;42.74
48872;BME280;36154;51.674;7.824;2023-04-20T03:10:52;101052.63;;;21.02;42.90
48872;BME280;36154;51.674;7.824;2023-04-20T03:13:17;101044.84;;;21.02;42.71
48872;BME280;36154;51.674;7.824;2023-04-20T03:15:43;101038.81;;;21.02;42.72
48872;BME280;36154;51.674;7.824;2023-04-20T03:18:08;101045.72;;;21.01;42.84
48872;BME280;36154;51.674;7.824;2023-04-20T03:20:34;101037.97;;;21.01;43.02
48872;BME280;36154;51.674;7.824;2023-04-20T03:22:59;101041.47;;;21.00;42.73
48872;BME280;36154;51.674;7.824;2023-04-20T03:25:25;101037.97;;;21.01;42.77
48872;BME280;36154;51.674;7.824;2023-04-20T03:27:50;101043.13;;;21.01;42.62
48872;BME280;36154;51.674;7.824;2023-04-20T03:30:15;101031.09;;;21.00;42.86
48872;BME280;36154;51.674;7.824;2023-04-20T03:32:41;101043.13;;;21.01;42.70
48872;BME280;36154;51.674;7.824;2023-04-20T03:35:06;101035.41;;;21.00;42.87
48872;BME280;36154;51.674;7.824;2023-04-20T03:37:33;101037.97;;;21.01;42.97
48872;BME280;36154;51.674;7.824;2023-04-20T03:39:58;101031.09;;;21.00;42.78
48872;BME280;36154;51.674;7.824;2023-04-20T03:42:24;101041.47;;;21.00;42.78
48872;BME280;36154;51.674;7.824;2023-04-20T03:44:49;101028.50;;;21.00;42.75
48872;BME280;36154;51.674;7.824;2023-04-20T03:47:15;101026.78;;;20.99;42.66
48872;BME280;36154;51.674;7.824;2023-04-20T03:49:40;101031.09;;;21.00;42.56
48872;BME280;36154;51.674;7.824;2023-04-20T03:52:05;101029.38;;;20.99;42.70
48872;BME280;36154;51.674;7.824;2023-04-20T03:54:31;101026.78;;;20.99;42.83
48872;BME280;36154;51.674;7.824;2023-04-20T03:56:56;101026.78;;;20.99;42.80
48872;BME280;36154;51.674;7.824;2023-04-20T03:59:22;101023.34;;;20.99;42.78
48872;BME280;36154;51.674;7.824;2023-04-20T04:01:48;101028.56;;;20.97;42.66
48872;BME280;36154;51.674;7.824;2023-04-20T04:04:13;101025.91;;;21.00;42.71
48872;BME280;36154;51.674;7.824;2023-04-20T04:06:41;101027.63;;;21.00;42.62
48872;BME280;36154;51.674;7.824;2023-04-20T04:09:06;101021.56;;;21.01;42.89
48872;BME280;36154;51.674;7.824;2023-04-20T04:11:31;101022.41;;;21.01;42.48
48872;BME280;36154;51.674;7.824;2023-04-20T04:13:57;101022.41;;;21.01;42.64
48872;BME280;36154;51.674;7.824;2023-04-20T04:16:23;101012.97;;;21.00;42.64
48872;BME280;36154;51.674;7.824;2023-04-20T04:18:48;101022.41;;;21.01;42.54
48872;BME280;36154;51.674;7.824;2023-04-20T04:21:13;101017.22;;;21.01;42.52
48872;BME280;36154;51.674;7.824;2023-04-20T04:23:39;101023.25;;;21.02;42.70
48872;BME280;36154;51.674;7.824;2023-04-20T04:26:06;101017.22;;;21.01;42.00
48872;BME280;36154;51.674;7.824;2023-04-20T04:28:31;101019.81;;;21.01;42.52
48872;BME280;36154;51.674;7.824;2023-04-20T04:30:57;101028.44;;;21.02;42.46
48872;BME280;36154;51.674;7.824;2023-04-20T04:33:22;101021.56;;;21.01;42.39
48872;BME280;36154;51.674;7.824;2023-04-20T04:35:48;101030.19;;;21.01;42.57
48872;BME280;36154;51.674;7.824;2023-04-20T04:38:13;101027.63;;;21.00;42.47
48872;BME280;36154;51.674;7.824;2023-04-20T04:40:39;101027.59;;;21.01;42.50
48872;BME280;36154;51.674;7.824;2023-04-20T04:43:07;101021.53;;;21.02;42.64
48872;BME280;36154;51.674;7.824;2023-04-20T04:45:33;101026.75;;;21.01;42.40
48872;BME280;36154;51.674;7.824;2023-04-20T04:48:00;101028.44;;;21.02;42.39
48872;BME280;36154;51.674;7.824;2023-04-20T04:50:27;101034.50;;;21.02;42.38
48872;BME280;36154;51.674;7.824;2023-04-20T04:52:52;101034.50;;;21.02;42.42
48872;BME280;36154;51.674;7.824;2023-04-20T04:55:17;101025.91;;;21.00;42.39
48872;BME280;36154;51.674;7.824;2023-04-20T04:57:43;101032.78;;;21.01;42.25
48872;BME280;36154;51.674;7.824;2023-04-20T05:00:08;101028.44;;;21.02;42.38
48872;BME280;36154;51.674;7.824;2023-04-20T05:02:35;101032.84;;;20.98;42.17
48872;BME280;36154;51.674;7.824;2023-04-20T05:05:03;101040.56;;;21.01;42.46
48872;BME280;36154;51.674;7.824;2023-04-20T05:07:29;101036.28;;;21.00;42.45
48872;BME280;36154;51.674;7.824;2023-04-20T05:09:54;101038.88;;;21.00;42.38
48872;BME280;36154;51.674;7.824;2023-04-20T05:12:19;101048.31;;;21.01;42.39
48872;BME280;36154;51.674;7.824;2023-04-20T05:14:45;101038.88;;;21.00;42.42
48872;BME280;36154;51.674;7.824;2023-04-20T05:17:10;101046.63;;;21.00;42.62
48872;BME280;36154;51.674;7.824;2023-04-20T05:19:35;101042.34;;;20.99;42.26
48872;BME280;36154;51.674;7.824;2023-04-20T05:22:00;101043.22;;;20.98;42.23
48872;BME280;36154;51.674;7.824;2023-04-20T05:24:26;101044.94;;;20.99;42.35
48872;BME280;36154;51.674;7.824;2023-04-20T05:26:51;101044.94;;;20.99;42.25
48872;BME280;36154;51.674;7.824;2023-04-20T05:29:16;101043.22;;;20.98;42.38
48872;BME280;36154;51.674;7.824;2023-04-20T05:31:44;101050.97;;;20.98;42.42
48872;BME280;36154;51.674;7.824;2023-04-20T05:34:10;101049.25;;;20.99;42.20
48872;BME280;36154;51.674;7.824;2023-04-20T05:36:35;101053.56;;;20.98;42.38
48872;BME280;36154;51.674;7.824;2023-04-20T05:39:01;101056.16;;;20.98;42.20
48872;BME280;36154;51.674;7.824;2023-04-20T05:41:26;101055.28;;;20.99;42.21
48872;BME280;36154;51.674;7.824;2023-04-20T05:43:52;101056.19;;;20.97;42.28
48872;BME280;36154;51.674;7.824;2023-04-20T05:46:18;101058.75;;;20.98;41.93
48872;BME280;36154;51.674;7.824;2023-04-20T05:48:44;101063.94;;;20.98;41.84
48872;BME280;36154;51.674;7.824;2023-04-20T05:51:09;101056.19;;;20.97;42.27
48872;BME280;36154;51.674;7.824;2023-04-20T05:53:34;101057.06;;;20.97;42.33
48872;BME280;36154;51.674;7.824;2023-04-20T05:55:59;101053.59;;;20.97;42.33
48872;BME280;36154;51.674;7.824;2023-04-20T05:58:25;101060.53;;;20.96;42.25
48872;BME280;36154;51.674;7.824;2023-04-20T06:00:51;101061.38;;;20.97;42.67
48872;BME280;36154;51.674;7.824;2023-04-20T06:03:16;101060.53;;;20.96;42.24
48872;BME280;36154;51.674;7.824;2023-04-20T06:05:41;101061.38;;;20.97;42.19
48872;BME280;36154;51.674;7.824;2023-04-20T06:08:07;101054.50;;;20.96;42.17
48872;BME280;36154;51.674;7.824;2023-04-20T06:10:32;101051.03;;;20.95;42.20
48872;BME280;36154;51.674;7.824;2023-04-20T06:12:58;101044.16;;;20.96;42.20
48872;BME280;36154;51.674;7.824;2023-04-20T06:15:23;101048.47;;;20.95;42.12
48872;BME280;36154;51.674;7.824;2023-04-20T06:17:48;101044.19;;;20.94;42.07
48872;BME280;36154;51.674;7.824;2023-04-20T06:20:14;101043.28;;;20.95;42.00
48872;BME280;36154;51.674;7.824;2023-04-20T06:22:43;101044.16;;;20.96;42.19
48872;BME280;36154;51.674;7.824;2023-04-20T06:25:09;101035.50;;;20.95;42.20
48872;BME280;36154;51.674;7.824;2023-04-20T06:27:34;101040.69;;;20.95;42.15
48872;BME280;36154;51.674;7.824;2023-04-20T06:30:00;101035.47;;;20.97;42.02
48872;BME280;36154;51.674;7.824;2023-04-20T06:32:27;101032.91;;;20.95;42.19
48872;BME280;36154;51.674;7.824;2023-04-20T06:34:52;101032.03;;;20.96;42.17
48872;BME280;36154;51.674;7.824;2023-04-20T06:37:18;101029.44;;;20.96;42.28
48872;BME280;36154;51.674;7.824;2023-04-20T06:39:43;101037.22;;;20.96;42.33
48872;BME280;36154;51.674;7.824;2023-04-20T06:42:08;101029.44;;;20.96;42.22
48872;BME280;36154;51.674;7.824;2023-04-20T06:44:34;101028.59;;;20.96;42.29
48872;BME280;36154;51.674;7.824;2023-04-20T06:46:59;101039.81;;;20.96;42.43
48872;BME280;36154;51.674;7.824;2023-04-20T06:49:24;101033.75;;;20.97;42.49
48872;BME280;36154;51.674;7.824;2023-04-20T06:51:50;101038.97;;;20.96;42.35
48872;BME280;36154;51.674;7.824;2023-04-20T06:54:15;101029.44;;;20.96;42.45
48872;BME280;36154;51.674;7.824;2023-04-20T06:56:41;101034.59;;;20.98;42.37
48872;BME280;36154;51.674;7.824;2023-04-20T06:59:06;101033.75;;;20.97;42.45
48872;BME280;36154;51.674;7.824;2023-04-20T07:01:31;101032.84;;;20.98;42.36
48872;BME280;36154;51.674;7.824;2023-04-20T07:03:56;101034.56;;;20.99;42.50
48872;BME280;36154;51.674;7.824;2023-04-20T07:06:22;101038.03;;;20.98;42.50
48872;BME280;36154;51.674;7.824;2023-04-20T07:08:49;101031.09;;;21.00;42.37
48872;BME280;36154;51.674;7.824;2023-04-20T07:11:14;101029.38;;;20.99;42.12
48872;BME280;36154;51.674;7.824;2023-04-20T07:13:39;101036.28;;;21.00;42.46
48872;BME280;36154;51.674;7.824;2023-04-20T07:16:05;101030.22;;;21.00;42.45
48872;BME280;36154;51.674;7.824;2023-04-20T07:18:30;101024.19;;;20.99;42.53
48872;BME280;36154;51.674;7.824;2023-04-20T07:20:56;101025.91;;;21.00;42.55
48872;BME280;36154;51.674;7.824;2023-04-20T07:23:23;101023.31;;;21.00;42.50
48872;BME280;36154;51.674;7.824;2023-04-20T07:25:49;101019.03;;;20.99;42.57
48872;BME280;36154;51.674;7.824;2023-04-20T07:28:14;101020.72;;;21.00;42.63
48872;BME280;36154;51.674;7.824;2023-04-20T07:30:39;101023.31;;;21.00;42.48
48872;BME280;36154;51.674;7.824;2023-04-20T07:33:05;101022.41;;;21.01;42.42
48872;BME280;36154;51.674;7.824;2023-04-20T07:35:31;101012.91;;;21.02;42.54
48872;BME280;36154;51.674;7.824;2023-04-20T07:37:56;101014.66;;;21.01;42.60
48872;BME280;36154;51.674;7.824;2023-04-20T07:40:22;101017.22;;;21.01;42.67
48872;BME280;36154;51.674;7.824;2023-04-20T07:42:49;101025.91;;;21.00;42.61
48872;BME280;36154;51.674;7.824;2023-04-20T07:45:15;101017.22;;;21.01;42.57
48872;BME280;36154;51.674;7.824;2023-04-20T07:47:40;101022.41;;;21.01;42.52
48872;BME280;36154;51.674;7.824;2023-04-20T07:50:08;101003.53;;;20.96;42.50
48872;BME280;36154;51.674;7.824;2023-04-20T07:52:33;101009.50;;;21.00;42.50
48872;BME280;36154;51.674;7.824;2023-04-20T07:54:58;101016.41;;;21.01;42.59
48872;BME280;36154;51.674;7.824;2023-04-20T07:57:27;101014.69;;;21.00;42.46
48872;BME280;36154;51.674;7.824;2023-04-20T07:59:53;101017.31;;;20.98;42.53
48872;BME280;36154;51.674;7.824;2023-04-20T08:02:18;101017.31;;;20.98;42.51
48872;BME280;36154;51.674;7.824;2023-04-20T08:04:43;101014.69;;;21.00;42.45
48872;BME280;36154;51.674;7.824;2023-04-20T08:07:09;101007.81;;;20.99;42.50
48872;BME280;36154;51.674;7.824;2023-04-20T08:09:35;101017.31;;;20.98;42.51
48872;BME280;36154;51.674;7.824;2023-04-20T08:12:00;101014.72;;;20.98;42.53
48872;BME280;36154;51.674;7.824;2023-04-20T08:14:26;101012.13;;;20.98;42.62
48872;BME280;36154;51.674;7.824;2023-04-20T08:16:51;101009.53;;;20.98;42.48
48872;BME280;36154;51.674;7.824;2023-04-20T08:19:16;101002.63;;;20.99;42.46
48872;BME280;36154;51.674;7.824;2023-04-20T08:21:42;101005.25;;;20.97;42.50
48872;BME280;36154;51.674;7.824;2023-04-20T08:24:08;101007.84;;;20.97;42.54
48872;BME280;36154;51.674;7.824;2023-04-20T08:26:34;101026.81;;;20.98;42.26
48872;BME280;36154;51.674;7.824;2023-04-20T08:29:00;101032.03;;;20.96;42.49
48872;BME280;36154;51.674;7.824;2023-04-20T08:31:26;101041.53;;;20.97;42.22
48872;BME280;36154;51.674;7.824;2023-04-20T08:33:51;101039.81;;;20.96;42.51
48872;BME280;36154;51.674;7.824;2023-04-20T08:36:17;101030.31;;;20.95;42.50
48872;BME280;36154;51.674;7.824;2023-04-20T08:38:42;101024.28;;;20.96;42.49
48872;BME280;36154;51.674;7.824;2023-04-20T08:41:08;101033.75;;;20.97;42.44
48872;BME280;36154;51.674;7.824;2023-04-20T08:43:37;101030.31;;;20.95;42.52
48872;BME280;36154;51.674;7.824;2023-04-20T08:46:03;101033.78;;;20.96;42.63
48872;BME280;36154;51.674;7.824;2023-04-20T08:48:35;101033.78;;;20.96;42.44
48872;BME280;36154;51.674;7.824;2023-04-20T08:51:02;101028.59;;;20.96;42.51
48872;BME280;36154;51.674;7.824;2023-04-20T08:53:28;101029.44;;;20.96;42.41
48872;BME280;36154;51.674;7.824;2023-04-20T08:55:53;101022.63;;;20.94;42.37
48872;BME280;36154;51.674;7.824;2023-04-20T08:58:23;101032.91;;;20.95;42.51
48872;BME280;36154;51.674;7.824;2023-04-20T09:00:49;101026.91;;;20.95;42.35
48872;BME280;36154;51.674;7.824;2023-04-20T09:03:15;101027.72;;;20.95;42.46
48872;BME280;36154;51.674;7.824;2023-04-20T09:05:40;101031.19;;;20.96;42.40
48872;BME280;36154;51.674;7.824;2023-04-20T09:08:06;101032.91;;;20.95;42.37
48872;BME280;36154;51.674;7.824;2023-04-20T09:10:41;101038.09;;;20.95;42.34
48872;BME280;36154;51.674;7.824;2023-04-20T09:13:06;101031.19;;;20.96;42.41
48872;BME280;36154;51.674;7.824;2023-04-20T09:15:32;101029.44;;;20.96;42.47
48872;BME280;36154;51.674;7.824;2023-04-20T09:17:57;101023.41;;;20.97;42.49
48872;BME280;36154;51.674;7.824;2023-04-20T09:20:40;101020.03;;;20.94;42.49
48872;BME280;36154;51.674;7.824;2023-04-20T09:23:13;101024.28;;;20.96;42.92
48872;BME280;36154;51.674;7.824;2023-04-20T09:25:39;101027.69;;;20.97;42.44
48872;BME280;36154;51.674;7.824;2023-04-20T09:28:06;101025.09;;;20.97;42.33
48872;BME280;36154;51.674;7.824;2023-04-20T09:33:06;101015.63;;;20.97;42.37
48872;BME280;36154;51.674;7.824;2023-04-20T09:35:37;101010.44;;;20.97;42.41
48872;BME280;36154;51.674;7.824;2023-04-20T09:38:05;101019.91;;;20.98;42.44
48872;BME280;36154;51.674;7.824;2023-04-20T09:40:31;101022.47;;;20.98;42.46
48872;BME280;36154;51.674;7.824;2023-04-20T09:42:58;101010.44;;;20.97;42.50
48872;BME280;36154;51.674;7.824;2023-04-20T09:45:27;101012.13;;;20.98;42.46
48872;BME280;36154;51.674;7.824;2023-04-20T09:47:53;101006.94;;;20.98;42.33
48872;BME280;36154;51.674;7.824;2023-04-20T09:50:20;101017.28;;;21.00;42.43
48872;BME280;36154;51.674;7.824;2023-04-20T09:52:46;101016.41;;;21.01;42.56
48872;BME280;36154;51.674;7.824;2023-04-20T09:55:13;101009.50;;;21.00;42.43
48872;BME280;36154;51.674;7.824;2023-04-20T09:57:39;101018.97;;;21.01;42.62
48872;BME280;36154;51.674;7.824;2023-04-20T10:00:06;101029.31;;;21.02;42.61
48872;BME280;36154;51.674;7.824;2023-04-20T10:02:32;101022.41;;;21.01;42.53
48872;BME280;36154;51.674;7.824;2023-04-20T10:04:58;101014.66;;;21.01;42.59
48872;BME280;36154;51.674;7.824;2023-04-20T10:07:25;101018.06;;;21.02;42.61
48872;BME280;36154;51.674;7.824;2023-04-20T10:12:29;101017.22;;;21.01;42.74
48872;BME280;36154;51.674;7.824;2023-04-20T10:14:57;101031.03;;;21.02;42.68
48872;BME280;36154;51.674;7.824;2023-04-20T10:17:31;101031.91;;;21.02;42.81
48872;BME280;36154;51.674;7.824;2023-04-20T10:19:57;101028.44;;;21.02;42.91
48872;BME280;36154;51.674;7.824;2023-04-20T10:22:28;101027.59;;;21.01;42.89
48872;BME280;36154;51.674;7.824;2023-04-20T10:24:56;101037.09;;;21.02;42.75
48872;BME280;36154;51.674;7.824;2023-04-20T10:27:22;101025.84;;;21.02;42.80
48872;BME280;36154;51.674;7.824;2023-04-20T10:29:47;101031.91;;;21.02;42.88
48872;BME280;36154;51.674;7.824;2023-04-20T10:32:27;101025.84;;;21.02;42.90
48872;BME280;36154;51.674;7.824;2023-04-20T10:35:00;101012.06;;;21.01;42.79
48872;BME280;36154;51.674;7.824;2023-04-20T10:37:26;101020.63;;;21.03;42.69
48872;BME280;36154;51.674;7.824;2023-04-20T10:39:54;101011.97;;;21.04;42.66
48872;BME280;36154;51.674;7.824;2023-04-20T10:42:19;101017.97;;;21.07;42.81
48872;BME280;36154;51.674;7.824;2023-04-20T10:44:49;101003.28;;;21.07;42.88
48872;BME280;36154;51.674;7.824;2023-04-20T10:47:15;101005.88;;;21.07;42.83
48872;BME280;36154;51.674;7.824;2023-04-20T10:49:40;101013.59;;;21.09;42.82
48872;BME280;36154;51.674;7.824;2023-04-20T10:52:06;101018.78;;;21.09;43.00
48872;BME280;36154;51.674;7.824;2023-04-20T10:54:38;101006.69;;;21.09;42.51
48872;BME280;36154;51.674;7.824;2023-04-20T10:57:04;101014.47;;;21.09;42.57
48872;BME280;36154;51.674;7.824;2023-04-20T10:59:31;101009.34;;;21.06;42.79
48872;BME280;36154;51.674;7.824;2023-04-20T11:01:58;101015.38;;;21.07;42.96
48872;BME280;36154;51.674;7.824;2023-04-20T11:04:31;101010.19;;;21.07;43.13
48872;BME280;36154;51.674;7.824;2023-04-20T11:07:04;101011.09;;;21.05;43.06
48872;BME280;36154;51.674;7.824;2023-04-20T11:09:31;101009.38;;;21.04;43.15
48872;BME280;36154;51.674;7.824;2023-04-20T11:12:01;101009.44;;;21.03;43.15
48872;BME280;36154;51.674;7.824;2023-04-20T11:14:36;101002.50;;;21.03;42.93
48872;BME280;36154;51.674;7.824;2023-04-20T11:17:02;101014.59;;;21.03;43.20
48872;BME280;36154;51.674;7.824;2023-04-20T11:19:33;101005.19;;;21.00;43.14
48872;BME280;36154;51.674;7.824;2023-04-20T11:22:00;101011.22;;;21.01;43.04
48872;BME280;36154;51.674;7.824;2023-04-20T11:24:29;101001.69;;;21.01;43.06
48872;BME280;36154;51.674;7.824;2023-04-20T11:26:56;101003.47;;;20.99;43.01
48872;BME280;36154;51.674;7.824;2023-04-20T11:32:07;100995.72;;;20.99;42.94
48872;BME280;36154;51.674;7.824;2023-04-20T11:34:34;100978.41;;;21.00;42.96
48872;BME280;36154;51.674;7.824;2023-04-20T11:37:07;100992.28;;;20.99;42.94
48872;BME280;36154;51.674;7.824;2023-04-20T11:39:34;100985.34;;;20.99;42.98
48872;BME280;36154;51.674;7.824;2023-04-20T11:42:00;100994.00;;;20.98;42.85
48872;BME280;36154;51.674;7.824;2023-04-20T11:44:26;100982.78;;;20.98;42.89
48872;BME280;36154;51.674;7.824;2023-04-20T11:46:52;100986.22;;;20.98;42.89
48872;BME280;36154;51.674;7.824;2023-04-20T11:49:19;100993.16;;;20.98;42.89
48872;BME280;36154;51.674;7.824;2023-04-20T11:51:45;100984.53;;;20.97;42.73
48872;BME280;36154;51.674;7.824;2023-04-20T11:54:11;100996.59;;;20.98;42.74
48872;BME280;36154;51.674;7.824;2023-04-20T11:56:37;100992.28;;;20.99;42.59
48872;BME280;36154;51.674;7.824;2023-04-20T11:59:03;100990.53;;;20.99;42.53
48872;BME280;36154;51.674;7.824;2023-04-20T12:01:28;100996.50;;;21.01;42.70
48872;BME280;36154;51.674;7.824;2023-04-20T12:03:54;100994.72;;;21.03;42.67
48872;BME280;36154;51.674;7.824;2023-04-20T12:06:19;100980.91;;;21.04;42.65
48872;BME280;36154;51.674;7.824;2023-04-20T12:08:45;100975.69;;;21.06;42.46
48872;BME280;36154;51.674;7.824;2023-04-20T12:11:12;100982.50;;;21.09;42.48
48872;BME280;36154;51.674;7.824;2023-04-20T12:13:39;100988.56;;;21.09;42.49
48872;BME280;36154;51.674;7.824;2023-04-20T12:16:05;100998.00;;;21.10;42.48
48872;BME280;36154;51.674;7.824;2023-04-20T12:18:30;100987.59;;;21.12;42.40
48872;BME280;36154;51.674;7.824;2023-04-20T12:20:55;100988.47;;;21.12;42.39
48872;BME280;36154;51.674;7.824;2023-04-20T12:23:23;100983.31;;;21.12;42.52
48872;BME280;36154;51.674;7.824;2023-04-20T12:25:48;100994.50;;;21.13;42.48
48872;BME280;36154;51.674;7.824;2023-04-20T12:28:14;100994.50;;;21.13;42.37
48872;BME280;36154;51.674;7.824;2023-04-20T12:30:39;100978.97;;;21.13;42.38
48872;BME280;36154;51.674;7.824;2023-04-20T12:33:04;100977.25;;;21.12;42.36
48872;BME280;36154;51.674;7.824;2023-04-20T12:35:29;100978.97;;;21.13;42.32
48872;BME280;36154;51.674;7.824;2023-04-20T12:37:55;100968.72;;;21.08;42.35
48872;BME280;36154;51.674;7.824;2023-04-20T12:40:21;100960.81;;;21.13;42.02
48872;BME280;36154;51.674;7.824;2023-04-20T12:42:48;100966.81;;;21.15;42.21
48872;BME280;36154;51.674;7.824;2023-04-20T12:45:14;100958.16;;;21.16;42.14
48872;BME280;36154;51.674;7.824;2023-04-20T12:47:39;100971.06;;;21.17;42.28
48872;BME280;36154;51.674;7.824;2023-04-20T12:50:05;100956.34;;;21.19;42.19
48872;BME280;36154;51.674;7.824;2023-04-20T12:52:31;100961.47;;;21.21;42.37